createdAt,value
2016-12-12T00:00:31.434Z,0
2016-12-12T00:01:31.419Z,0
2016-12-12T00:02:31.419Z,0
2016-12-12T00:03:31.397Z,0
2016-12-12T00:04:31.397Z,0
2016-12-12T00:05:31.384Z,0
2016-12-12T00:06:31.371Z,0
2016-12-12T00:07:31.363Z,0
2016-12-12T00:08:31.365Z,0
2016-12-12T00:09:31.336Z,0
2016-12-12T00:10:31.328Z,0
2016-12-12T00:11:31.323Z,0
2016-12-12T00:12:31.311Z,0
2016-12-12T00:13:31.306Z,0
2016-12-12T00:14:31.296Z,0
2016-12-12T00:15:31.283Z,0
2016-12-12T00:16:31.273Z,0
2016-12-12T00:17:31.271Z,0
2016-12-12T00:18:31.250Z,0
2016-12-12T00:19:31.243Z,0
2016-12-12T00:20:31.534Z,0
2016-12-12T00:21:31.222Z,0
2016-12-12T00:22:31.211Z,0
2016-12-12T00:23:31.202Z,0
2016-12-12T00:24:31.197Z,0
2016-12-12T00:25:31.183Z,0
2016-12-12T00:26:31.171Z,0
2016-12-12T00:27:31.161Z,0
2016-12-12T00:28:31.162Z,0
2016-12-12T00:29:31.147Z,0
2016-12-12T00:30:31.145Z,0
2016-12-12T00:31:31.135Z,0
2016-12-12T00:32:31.119Z,0
2016-12-12T00:33:31.102Z,0
2016-12-12T00:34:31.090Z,0
2016-12-12T00:35:31.085Z,0
2016-12-12T00:36:31.084Z,0
2016-12-12T00:37:31.071Z,0
2016-12-12T00:38:31.057Z,0
2016-12-12T00:39:31.041Z,0
2016-12-12T00:40:31.035Z,0
2016-12-12T00:41:31.031Z,0
2016-12-12T00:42:31.016Z,0
2016-12-12T00:43:31.006Z,0
2016-12-12T00:44:30.993Z,0
2016-12-12T00:45:31.289Z,0
2016-12-12T00:46:30.979Z,0
2016-12-12T00:47:30.972Z,0
2016-12-12T00:48:30.988Z,0
2016-12-12T00:49:30.949Z,0
2016-12-12T00:50:31.282Z,0
2016-12-12T00:51:30.932Z,0
2016-12-12T00:52:30.923Z,0
2016-12-12T00:53:30.910Z,0
2016-12-12T00:54:30.901Z,0
2016-12-12T00:55:30.901Z,0
2016-12-12T00:56:30.882Z,0
2016-12-12T00:57:30.876Z,0
2016-12-12T00:58:31.169Z,0
2016-12-12T00:59:30.855Z,0
2016-12-12T01:00:30.847Z,0
2016-12-12T01:01:30.825Z,0
2016-12-12T01:02:30.814Z,0
2016-12-12T01:03:30.805Z,0
2016-12-12T01:04:30.793Z,0
2016-12-12T01:05:30.800Z,0
2016-12-12T01:06:30.785Z,0
2016-12-12T01:07:30.771Z,0
2016-12-12T01:08:30.767Z,0
2016-12-12T01:09:30.763Z,0
2016-12-12T01:10:30.733Z,0
2016-12-12T01:11:30.738Z,0
2016-12-12T01:12:30.719Z,0
2016-12-12T01:13:30.705Z,0
2016-12-12T01:14:31.004Z,0
2016-12-12T01:15:30.695Z,0
2016-12-12T01:16:30.678Z,0
2016-12-12T01:17:30.673Z,0
2016-12-12T01:18:30.666Z,0
2016-12-12T01:19:30.658Z,0
2016-12-12T01:20:30.642Z,0
2016-12-12T01:21:30.628Z,0
2016-12-12T01:22:30.635Z,0
2016-12-12T01:23:30.614Z,0
2016-12-12T01:24:30.608Z,0
2016-12-12T01:25:30.589Z,0
2016-12-12T01:26:30.591Z,0
2016-12-12T01:27:30.570Z,0
2016-12-12T01:28:30.566Z,0
2016-12-12T01:29:30.557Z,0
2016-12-12T01:30:30.846Z,0
2016-12-12T01:31:30.535Z,0
2016-12-12T01:32:30.528Z,0
2016-12-12T01:33:30.512Z,0
2016-12-12T01:34:30.512Z,0
2016-12-12T01:35:30.501Z,0
2016-12-12T01:36:30.486Z,0
2016-12-12T01:37:30.474Z,0
2016-12-12T01:38:30.769Z,0
2016-12-12T01:39:30.453Z,0
2016-12-12T01:40:30.437Z,0
2016-12-12T01:41:30.436Z,0
2016-12-12T01:42:30.431Z,0
2016-12-12T01:43:30.415Z,0
2016-12-12T01:44:30.699Z,0
2016-12-12T01:45:30.398Z,0
2016-12-12T01:46:30.385Z,0
2016-12-12T01:47:30.375Z,0
2016-12-12T01:48:30.359Z,0
2016-12-12T01:49:30.358Z,0
2016-12-12T01:50:30.354Z,0
2016-12-12T01:51:30.333Z,0
2016-12-12T01:52:30.322Z,0
2016-12-12T01:53:30.326Z,0
2016-12-12T01:54:30.296Z,0
2016-12-12T01:55:30.296Z,0
2016-12-12T01:56:30.292Z,0
2016-12-12T01:57:30.307Z,0
2016-12-12T01:58:30.259Z,0
2016-12-12T01:59:30.255Z,0
2016-12-12T02:00:30.250Z,0
2016-12-12T02:01:30.537Z,0
2016-12-12T02:02:30.221Z,0
2016-12-12T02:03:30.218Z,0
2016-12-12T02:04:30.213Z,0
2016-12-12T02:05:30.186Z,0
2016-12-12T02:06:30.184Z,0
2016-12-12T02:07:30.172Z,0
2016-12-12T02:08:30.169Z,0
2016-12-12T02:09:30.468Z,0
2016-12-12T02:10:30.156Z,0
2016-12-12T02:11:30.133Z,0
2016-12-12T02:12:30.123Z,0
2016-12-12T02:13:30.118Z,0
2016-12-12T02:14:30.110Z,0
2016-12-12T02:15:30.100Z,0
2016-12-12T02:16:30.097Z,0
2016-12-12T02:17:30.075Z,0
2016-12-12T02:18:30.064Z,0
2016-12-12T02:19:30.052Z,0
2016-12-12T02:20:30.042Z,0
2016-12-12T02:21:30.353Z,0
2016-12-12T02:22:30.025Z,0
2016-12-12T02:23:30.015Z,0
2016-12-12T02:24:30.014Z,0
2016-12-12T02:25:29.995Z,0
2016-12-12T02:26:29.989Z,0
2016-12-12T02:27:29.975Z,0
2016-12-12T02:28:29.976Z,0
2016-12-12T02:29:29.955Z,0
2016-12-12T02:30:29.951Z,0
2016-12-12T02:31:29.946Z,0
2016-12-12T02:32:29.938Z,0
2016-12-12T02:33:29.920Z,0
2016-12-12T02:34:29.903Z,0
2016-12-12T02:35:29.900Z,0
2016-12-12T02:36:29.883Z,0
2016-12-12T02:37:29.875Z,0
2016-12-12T02:38:29.871Z,0
2016-12-12T02:39:29.861Z,0
2016-12-12T02:40:29.850Z,0
2016-12-12T02:41:29.833Z,0
2016-12-12T02:42:30.125Z,0
2016-12-12T02:43:29.814Z,0
2016-12-12T02:44:29.813Z,0
2016-12-12T02:45:29.800Z,0
2016-12-12T02:46:29.784Z,0
2016-12-12T02:47:29.769Z,0
2016-12-12T02:48:29.765Z,0
2016-12-12T02:49:29.750Z,0
2016-12-12T02:50:29.739Z,0
2016-12-12T02:51:29.740Z,0
2016-12-12T02:52:29.718Z,0
2016-12-12T02:53:29.713Z,0
2016-12-12T02:54:29.710Z,0
2016-12-12T02:55:29.693Z,0
2016-12-12T02:56:29.681Z,0
2016-12-12T02:57:29.674Z,0
2016-12-12T02:58:29.686Z,0
2016-12-12T02:59:29.951Z,0
2016-12-12T03:00:29.628Z,0
2016-12-12T03:01:29.625Z,0
2016-12-12T03:02:29.612Z,0
2016-12-12T03:03:29.607Z,0
2016-12-12T03:04:29.589Z,0
2016-12-12T03:05:29.588Z,0
2016-12-12T03:06:29.581Z,0
2016-12-12T03:07:29.555Z,0
2016-12-12T03:08:29.548Z,0
2016-12-12T03:09:29.538Z,0
2016-12-12T03:10:29.527Z,0
2016-12-12T03:11:29.525Z,0
2016-12-12T03:12:29.509Z,0
2016-12-12T03:13:29.506Z,0
2016-12-12T03:14:29.487Z,0
2016-12-12T03:15:29.475Z,0
2016-12-12T03:16:29.462Z,0
2016-12-12T03:17:29.751Z,0
2016-12-12T03:18:29.440Z,0
2016-12-12T03:19:29.431Z,0
2016-12-12T03:20:29.417Z,0
2016-12-12T03:21:29.408Z,0
2016-12-12T03:22:29.401Z,0
2016-12-12T03:23:29.381Z,0
2016-12-12T03:24:29.378Z,0
2016-12-12T03:25:29.364Z,0
2016-12-12T03:26:29.361Z,0
2016-12-12T03:27:29.351Z,0
2016-12-12T03:28:29.330Z,0
2016-12-12T03:29:29.321Z,0
2016-12-12T03:30:29.306Z,0
2016-12-12T03:31:29.307Z,0
2016-12-12T03:32:29.297Z,0
2016-12-12T03:33:29.275Z,0
2016-12-12T03:34:29.269Z,0
2016-12-12T03:35:29.250Z,0
2016-12-12T03:36:29.237Z,0
2016-12-12T03:37:29.235Z,0
2016-12-12T03:38:29.221Z,0
2016-12-12T03:39:29.211Z,0
2016-12-12T03:40:29.197Z,0
2016-12-12T03:41:29.186Z,0
2016-12-12T03:42:29.182Z,0
2016-12-12T03:43:29.166Z,0
2016-12-12T03:44:29.158Z,0
2016-12-12T03:45:29.137Z,0
2016-12-12T03:46:29.132Z,0
2016-12-12T03:47:29.120Z,0
2016-12-12T03:48:29.105Z,0
2016-12-12T03:49:29.094Z,0
2016-12-12T03:50:29.117Z,0
2016-12-12T03:51:29.073Z,0
2016-12-12T03:52:29.395Z,0
2016-12-12T03:53:29.057Z,0
2016-12-12T03:54:29.044Z,0
2016-12-12T03:55:29.030Z,0
2016-12-12T03:56:29.023Z,0
2016-12-12T03:57:29.013Z,0
2016-12-12T03:58:29.005Z,0
2016-12-12T03:59:28.989Z,0
2016-12-12T04:00:28.997Z,0
2016-12-12T04:01:28.969Z,0
2016-12-12T04:02:28.954Z,0
2016-12-12T04:03:28.938Z,0
2016-12-12T04:04:28.935Z,0
2016-12-12T04:05:28.929Z,0
2016-12-12T04:06:28.942Z,0
2016-12-12T04:07:28.900Z,0
2016-12-12T04:08:28.889Z,0
2016-12-12T04:09:29.179Z,0
2016-12-12T04:10:28.863Z,0
2016-12-12T04:11:28.853Z,0
2016-12-12T04:12:28.841Z,0
2016-12-12T04:13:28.842Z,0
2016-12-12T04:14:28.826Z,0
2016-12-12T04:15:28.816Z,0
2016-12-12T04:16:28.805Z,0
2016-12-12T04:17:28.795Z,0
2016-12-12T04:18:28.781Z,0
2016-12-12T04:19:28.770Z,0
2016-12-12T04:20:28.769Z,0
2016-12-12T04:21:28.749Z,0
2016-12-12T04:22:28.742Z,0
2016-12-12T04:23:28.759Z,0
2016-12-12T04:24:28.716Z,0
2016-12-12T04:25:28.736Z,0
2016-12-12T04:26:28.694Z,0
2016-12-12T04:27:28.679Z,0
2016-12-12T04:28:28.672Z,0
2016-12-12T04:29:28.662Z,0
2016-12-12T04:30:28.655Z,0
2016-12-12T04:31:28.638Z,0
2016-12-12T04:32:28.630Z,0
2016-12-12T04:33:28.625Z,0
2016-12-12T04:34:28.604Z,0
2016-12-12T04:35:28.596Z,0
2016-12-12T04:36:28.609Z,0
2016-12-12T04:37:28.580Z,0
2016-12-12T04:38:28.564Z,0
2016-12-12T04:39:28.563Z,0
2016-12-12T04:40:28.539Z,0
2016-12-12T04:41:28.538Z,0
2016-12-12T04:42:28.523Z,0
2016-12-12T04:43:28.518Z,0
2016-12-12T04:44:28.504Z,0
2016-12-12T04:45:28.488Z,0
2016-12-12T04:46:28.485Z,0
2016-12-12T04:47:28.476Z,0
2016-12-12T04:48:28.454Z,0
2016-12-12T04:49:28.440Z,0
2016-12-12T04:50:28.437Z,0
2016-12-12T04:51:28.418Z,0
2016-12-12T04:52:28.416Z,0
2016-12-12T04:53:28.397Z,0
2016-12-12T04:54:28.384Z,0
2016-12-12T04:55:28.382Z,0
2016-12-12T04:56:28.371Z,0
2016-12-12T04:57:28.354Z,0
2016-12-12T04:58:28.376Z,0
2016-12-12T04:59:28.345Z,0
2016-12-12T05:00:28.328Z,0
2016-12-12T05:01:28.320Z,0
2016-12-12T05:02:28.310Z,0
2016-12-12T05:03:28.298Z,0
2016-12-12T05:04:28.291Z,0
2016-12-12T05:05:28.270Z,0
2016-12-12T05:06:28.273Z,0
2016-12-12T05:07:28.256Z,0
2016-12-12T05:08:28.241Z,0
2016-12-12T05:09:28.238Z,0
2016-12-12T05:10:28.222Z,0
2016-12-12T05:11:28.212Z,0
2016-12-12T05:12:28.206Z,0
2016-12-12T05:13:28.192Z,0
2016-12-12T05:14:28.171Z,0
2016-12-12T05:15:28.172Z,0
2016-12-12T05:16:28.151Z,0
2016-12-12T05:17:28.150Z,0
2016-12-12T05:18:28.137Z,0
2016-12-12T05:19:28.126Z,0
2016-12-12T05:20:28.145Z,0
2016-12-12T05:21:28.103Z,0
2016-12-12T05:22:28.095Z,0
2016-12-12T05:23:28.077Z,0
2016-12-12T05:24:28.380Z,0
2016-12-12T05:25:28.073Z,0
2016-12-12T05:26:28.049Z,0
2016-12-12T05:27:28.053Z,0
2016-12-12T05:28:28.035Z,0
2016-12-12T05:29:28.024Z,0
2016-12-12T05:30:28.018Z,0
2016-12-12T05:31:28.003Z,0
2016-12-12T05:32:27.989Z,0
2016-12-12T05:33:27.986Z,0
2016-12-12T05:34:27.976Z,0
2016-12-12T05:35:27.962Z,0
2016-12-12T05:36:27.956Z,0
2016-12-12T05:37:27.946Z,0
2016-12-12T05:38:27.962Z,0
2016-12-12T05:39:27.926Z,0
2016-12-12T05:40:27.917Z,0
2016-12-12T05:41:27.903Z,0
2016-12-12T05:42:27.892Z,0
2016-12-12T05:43:28.186Z,0
2016-12-12T05:44:27.867Z,0
2016-12-12T05:45:27.851Z,0
2016-12-12T05:46:27.850Z,0
2016-12-12T05:47:28.142Z,0
2016-12-12T05:48:27.836Z,0
2016-12-12T05:49:27.822Z,0
2016-12-12T05:50:27.812Z,0
2016-12-12T05:51:27.792Z,0
2016-12-12T05:52:27.792Z,0
2016-12-12T05:53:27.775Z,0
2016-12-12T05:54:27.764Z,0
2016-12-12T05:55:27.762Z,0
2016-12-12T05:56:27.746Z,0
2016-12-12T05:57:27.737Z,0
2016-12-12T05:58:27.732Z,0
2016-12-12T05:59:27.717Z,0
2016-12-12T06:00:27.712Z,0
2016-12-12T06:01:27.705Z,0
2016-12-12T06:02:27.684Z,0
2016-12-12T06:03:27.676Z,0
2016-12-12T06:04:27.962Z,0
2016-12-12T06:05:27.667Z,0
2016-12-12T06:06:27.649Z,0
2016-12-12T06:07:27.638Z,0
2016-12-12T06:08:27.626Z,0
2016-12-12T06:09:27.617Z,0
2016-12-12T06:10:27.605Z,0
2016-12-12T06:11:27.595Z,0
2016-12-12T06:12:27.586Z,0
2016-12-12T06:13:27.574Z,0
2016-12-12T06:14:27.558Z,0
2016-12-12T06:15:27.866Z,0
2016-12-12T06:16:27.555Z,0
2016-12-12T06:17:27.570Z,0
2016-12-12T06:18:27.525Z,0
2016-12-12T06:19:27.814Z,0
2016-12-12T06:20:27.504Z,0
2016-12-12T06:21:27.496Z,0
2016-12-12T06:22:27.489Z,0
2016-12-12T06:23:27.476Z,0
2016-12-12T06:24:27.468Z,0
2016-12-12T06:25:27.454Z,0
2016-12-12T06:26:28.088Z,0
2016-12-12T06:27:27.437Z,0
2016-12-12T06:28:27.427Z,0
2016-12-12T06:29:27.418Z,0
2016-12-12T06:30:27.419Z,0
2016-12-12T06:31:27.402Z,0
2016-12-12T06:32:27.382Z,0
2016-12-12T06:33:27.383Z,0
2016-12-12T06:34:27.368Z,0
2016-12-12T06:35:27.354Z,0
2016-12-12T06:36:27.356Z,0
2016-12-12T06:37:27.330Z,0
2016-12-12T06:38:27.328Z,0
2016-12-12T06:39:27.346Z,0
2016-12-12T06:40:27.317Z,0
2016-12-12T06:41:27.299Z,0
2016-12-12T06:42:27.580Z,0
2016-12-12T06:43:27.274Z,0
2016-12-12T06:44:27.269Z,0
2016-12-12T06:45:27.250Z,0
2016-12-12T06:46:27.238Z,0
2016-12-12T06:47:27.231Z,0
2016-12-12T06:48:27.221Z,0
2016-12-12T06:49:27.221Z,0
2016-12-12T06:50:27.227Z,0
2016-12-12T06:51:27.192Z,0
2016-12-12T06:52:27.181Z,0
2016-12-12T06:53:27.167Z,0
2016-12-12T06:54:27.161Z,0
2016-12-12T06:55:27.161Z,0
2016-12-12T06:56:27.144Z,0
2016-12-12T06:57:27.132Z,0
2016-12-12T06:58:27.416Z,5
2016-12-12T06:59:27.116Z,5
2016-12-12T07:00:27.099Z,5
2016-12-12T07:01:27.087Z,5
2016-12-12T07:02:27.079Z,5
2016-12-12T07:03:27.063Z,5
2016-12-12T07:04:27.063Z,5
2016-12-12T07:05:27.051Z,10
2016-12-12T07:06:27.043Z,10
2016-12-12T07:07:27.036Z,10
2016-12-12T07:08:27.015Z,10
2016-12-12T07:09:26.998Z,10
2016-12-12T07:10:26.993Z,10
2016-12-12T07:11:26.978Z,10
2016-12-12T07:12:26.975Z,10
2016-12-12T07:13:26.962Z,15
2016-12-12T07:14:26.955Z,15
2016-12-12T07:15:27.243Z,15
2016-12-12T07:16:26.931Z,15
2016-12-12T07:17:26.920Z,15
2016-12-12T07:18:26.925Z,15
2016-12-12T07:19:27.210Z,15
2016-12-12T07:20:26.890Z,15
2016-12-12T07:21:26.877Z,15
2016-12-12T07:22:26.879Z,15
2016-12-12T07:23:26.856Z,15
2016-12-12T07:24:26.853Z,15
2016-12-12T07:25:26.842Z,15
2016-12-12T07:26:26.822Z,15
2016-12-12T07:27:26.816Z,15
2016-12-12T07:28:26.805Z,15
2016-12-12T07:29:26.808Z,20
2016-12-12T07:30:26.779Z,20
2016-12-12T07:31:27.071Z,20
2016-12-12T07:32:26.771Z,20
2016-12-12T07:33:26.760Z,15
2016-12-12T07:34:27.038Z,15
2016-12-12T07:35:26.760Z,15
2016-12-12T07:36:26.717Z,20
2016-12-12T07:37:26.709Z,25
2016-12-12T07:38:26.701Z,25
2016-12-12T07:39:26.691Z,20
2016-12-12T07:40:26.981Z,20
2016-12-12T07:41:26.968Z,20
2016-12-12T07:42:26.655Z,20
2016-12-12T07:43:26.646Z,25
2016-12-12T07:44:26.637Z,25
2016-12-12T07:45:26.955Z,30
2016-12-12T07:46:26.618Z,30
2016-12-12T07:47:26.607Z,25
2016-12-12T07:48:26.598Z,25
2016-12-12T07:49:26.585Z,30
2016-12-12T07:50:26.573Z,30
2016-12-12T07:51:26.574Z,35
2016-12-12T07:52:26.551Z,40
2016-12-12T07:53:26.553Z,45
2016-12-12T07:54:26.538Z,40
2016-12-12T07:55:26.515Z,40
2016-12-12T07:56:26.512Z,50
2016-12-12T07:57:26.506Z,55
2016-12-12T07:58:26.494Z,60
2016-12-12T07:59:26.474Z,65
2016-12-12T08:00:26.773Z,75
2016-12-12T08:01:26.475Z,75
2016-12-12T08:02:26.445Z,70
2016-12-12T08:03:26.441Z,65
2016-12-12T08:04:26.425Z,60
2016-12-12T08:05:26.421Z,60
2016-12-12T08:06:26.409Z,50
2016-12-12T08:07:26.401Z,45
2016-12-12T08:08:26.386Z,50
2016-12-12T08:09:26.676Z,60
2016-12-12T08:10:26.366Z,65
2016-12-12T08:11:26.361Z,70
2016-12-12T08:12:26.346Z,70
2016-12-12T08:13:26.340Z,60
2016-12-12T08:14:26.322Z,65
2016-12-12T08:15:26.318Z,65
2016-12-12T08:16:26.306Z,60
2016-12-12T08:17:26.297Z,60
2016-12-12T08:18:26.581Z,55
2016-12-12T08:19:26.284Z,45
2016-12-12T08:20:26.269Z,35
2016-12-12T08:21:26.262Z,35
2016-12-12T08:22:26.251Z,35
2016-12-12T08:23:26.237Z,30
2016-12-12T08:24:26.229Z,25
2016-12-12T08:25:26.216Z,25
2016-12-12T08:26:26.210Z,25
2016-12-12T08:27:26.199Z,25
2016-12-12T08:28:26.183Z,20
2016-12-12T08:29:26.474Z,20
2016-12-12T08:30:26.470Z,15
2016-12-12T08:31:26.158Z,15
2016-12-12T08:32:26.143Z,25
2016-12-12T08:33:26.133Z,35
2016-12-12T08:34:26.471Z,50
2016-12-12T08:35:26.117Z,65
2016-12-12T08:36:26.101Z,70
2016-12-12T08:37:26.085Z,65
2016-12-12T08:38:26.076Z,60
2016-12-12T08:39:26.373Z,60
2016-12-12T08:40:26.061Z,65
2016-12-12T08:41:26.081Z,65
2016-12-12T08:42:26.035Z,70
2016-12-12T08:43:26.034Z,75
2016-12-12T08:44:26.349Z,85
2016-12-12T08:45:26.308Z,75
2016-12-12T08:46:26.308Z,75
2016-12-12T08:47:25.989Z,75
2016-12-12T08:48:26.273Z,50
2016-12-12T08:49:26.275Z,45
2016-12-12T08:50:25.951Z,50
2016-12-12T08:51:25.948Z,60
2016-12-12T08:52:25.935Z,55
2016-12-12T08:53:25.928Z,50
2016-12-12T08:54:25.914Z,60
2016-12-12T08:55:26.231Z,60
2016-12-12T08:56:25.895Z,70
2016-12-12T08:57:25.919Z,70
2016-12-12T08:58:25.868Z,75
2016-12-12T08:59:25.861Z,80
2016-12-12T09:00:25.849Z,75
2016-12-12T09:01:25.837Z,85
2016-12-12T09:02:25.827Z,90
2016-12-12T09:03:25.820Z,80
2016-12-12T09:04:25.805Z,80
2016-12-12T09:05:25.789Z,85
2016-12-12T09:06:25.789Z,85
2016-12-12T09:07:25.775Z,90
2016-12-12T09:08:25.760Z,110
2016-12-12T09:09:25.754Z,115
2016-12-12T09:10:26.037Z,110
2016-12-12T09:11:25.728Z,110
2016-12-12T09:12:25.734Z,110
2016-12-12T09:13:25.705Z,130
2016-12-12T09:14:25.692Z,150
2016-12-12T09:15:25.683Z,160
2016-12-12T09:16:25.680Z,165
2016-12-12T09:17:25.963Z,155
2016-12-12T09:18:25.963Z,140
2016-12-12T09:19:25.645Z,135
2016-12-12T09:20:25.631Z,140
2016-12-12T09:21:25.614Z,135
2016-12-12T09:22:25.610Z,135
2016-12-12T09:23:25.887Z,140
2016-12-12T09:24:25.585Z,145
2016-12-12T09:25:25.565Z,150
2016-12-12T09:26:25.562Z,150
2016-12-12T09:27:25.546Z,155
2016-12-12T09:28:25.540Z,165
2016-12-12T09:29:25.517Z,170
2016-12-12T09:30:25.507Z,175
2016-12-12T09:31:25.508Z,170
2016-12-12T09:32:25.798Z,160
2016-12-12T09:33:25.510Z,160
2016-12-12T09:34:25.476Z,165
2016-12-12T09:35:25.757Z,175
2016-12-12T09:36:25.439Z,185
2016-12-12T09:37:25.731Z,185
2016-12-12T09:38:25.724Z,180
2016-12-12T09:39:25.411Z,175
2016-12-12T09:40:25.395Z,175
2016-12-12T09:41:25.389Z,180
2016-12-12T09:42:25.379Z,185
2016-12-12T09:43:25.370Z,185
2016-12-12T09:44:25.353Z,190
2016-12-12T09:45:25.336Z,185
2016-12-12T09:46:25.321Z,185
2016-12-12T09:47:25.319Z,190
2016-12-12T09:48:25.303Z,195
2016-12-12T09:49:25.297Z,200
2016-12-12T09:50:25.586Z,200
2016-12-12T09:51:25.275Z,210
2016-12-12T09:52:25.254Z,205
2016-12-12T09:53:25.239Z,200
2016-12-12T09:54:25.237Z,205
2016-12-12T09:55:25.224Z,210
2016-12-12T09:56:25.207Z,215
2016-12-12T09:57:25.201Z,210
2016-12-12T09:58:25.189Z,195
2016-12-12T09:59:25.191Z,200
2016-12-12T10:00:25.164Z,200
2016-12-12T10:01:25.150Z,195
2016-12-12T10:02:25.142Z,200
2016-12-12T10:03:25.456Z,200
2016-12-12T10:04:25.117Z,200
2016-12-12T10:05:25.103Z,200
2016-12-12T10:06:25.097Z,200
2016-12-12T10:07:25.085Z,205
2016-12-12T10:08:25.066Z,205
2016-12-12T10:09:25.358Z,205
2016-12-12T10:10:25.051Z,205
2016-12-12T10:11:25.035Z,205
2016-12-12T10:12:25.030Z,205
2016-12-12T10:13:25.046Z,215
2016-12-12T10:14:25.315Z,210
2016-12-12T10:15:24.993Z,215
2016-12-12T10:16:24.984Z,210
2016-12-12T10:17:24.971Z,215
2016-12-12T10:18:24.957Z,215
2016-12-12T10:19:24.952Z,225
2016-12-12T10:20:24.944Z,225
2016-12-12T10:21:25.224Z,225
2016-12-12T10:22:24.906Z,225
2016-12-12T10:23:24.899Z,220
2016-12-12T10:24:24.883Z,215
2016-12-12T10:25:24.884Z,215
2016-12-12T10:26:24.872Z,215
2016-12-12T10:27:24.859Z,205
2016-12-12T10:28:25.150Z,205
2016-12-12T10:29:24.838Z,210
2016-12-12T10:30:24.829Z,200
2016-12-12T10:31:24.809Z,195
2016-12-12T10:32:24.811Z,195
2016-12-12T10:33:24.794Z,200
2016-12-12T10:34:24.784Z,200
2016-12-12T10:35:24.762Z,200
2016-12-12T10:36:24.760Z,200
2016-12-12T10:37:24.748Z,210
2016-12-12T10:38:24.729Z,205
2016-12-12T10:39:24.723Z,210
2016-12-12T10:40:24.705Z,210
2016-12-12T10:41:24.704Z,210
2016-12-12T10:42:24.995Z,205
2016-12-12T10:43:24.682Z,205
2016-12-12T10:44:24.675Z,205
2016-12-12T10:45:24.657Z,210
2016-12-12T10:46:24.653Z,215
2016-12-12T10:47:25.238Z,215
2016-12-12T10:48:24.626Z,210
2016-12-12T10:49:24.613Z,215
2016-12-12T10:50:24.606Z,205
2016-12-12T10:51:24.620Z,205
2016-12-12T10:52:24.586Z,205
2016-12-12T10:53:24.570Z,205
2016-12-12T10:54:24.555Z,205
2016-12-12T10:55:24.574Z,210
2016-12-12T10:56:24.533Z,200
2016-12-12T10:57:24.525Z,195
2016-12-12T10:58:24.508Z,195
2016-12-12T10:59:24.811Z,190
2016-12-12T11:00:24.494Z,180
2016-12-12T11:01:24.504Z,170
2016-12-12T11:02:24.465Z,160
2016-12-12T11:03:24.471Z,155
2016-12-12T11:04:24.448Z,160
2016-12-12T11:05:24.435Z,155
2016-12-12T11:06:24.425Z,155
2016-12-12T11:07:24.413Z,150
2016-12-12T11:08:24.403Z,145
2016-12-12T11:09:24.386Z,145
2016-12-12T11:10:24.685Z,145
2016-12-12T11:11:24.365Z,145
2016-12-12T11:12:24.353Z,140
2016-12-12T11:13:24.349Z,140
2016-12-12T11:14:24.339Z,140
2016-12-12T11:15:24.328Z,140
2016-12-12T11:16:24.310Z,145
2016-12-12T11:17:24.294Z,140
2016-12-12T11:18:24.287Z,140
2016-12-12T11:19:24.274Z,140
2016-12-12T11:20:24.260Z,140
2016-12-12T11:21:24.243Z,140
2016-12-12T11:22:24.231Z,140
2016-12-12T11:23:24.219Z,140
2016-12-12T11:24:24.210Z,140
2016-12-12T11:25:24.203Z,140
2016-12-12T11:26:24.493Z,140
2016-12-12T11:27:24.176Z,140
2016-12-12T11:28:24.164Z,140
2016-12-12T11:29:24.159Z,140
2016-12-12T11:30:24.145Z,140
2016-12-12T11:31:24.160Z,140
2016-12-12T11:32:24.115Z,140
2016-12-12T11:33:24.136Z,140
2016-12-12T11:34:24.127Z,140
2016-12-12T11:35:24.078Z,140
2016-12-12T11:36:24.066Z,140
2016-12-12T11:37:24.053Z,140
2016-12-12T11:38:24.051Z,140
2016-12-12T11:39:24.330Z,140
2016-12-12T11:40:24.025Z,140
2016-12-12T11:41:24.013Z,140
2016-12-12T11:42:24.000Z,140
2016-12-12T11:43:23.975Z,140
2016-12-12T11:44:23.981Z,140
2016-12-12T11:45:23.966Z,135
2016-12-12T11:46:23.941Z,135
2016-12-12T11:47:23.942Z,135
2016-12-12T11:48:23.925Z,135
2016-12-12T11:49:23.910Z,135
2016-12-12T11:50:23.894Z,135
2016-12-12T11:51:23.887Z,135
2016-12-12T11:52:23.885Z,135
2016-12-12T11:53:23.868Z,135
2016-12-12T11:54:23.847Z,135
2016-12-12T11:55:23.845Z,135
2016-12-12T11:56:24.151Z,135
2016-12-12T11:57:23.814Z,135
2016-12-12T11:58:23.802Z,135
2016-12-12T11:59:24.113Z,135
2016-12-12T12:00:23.770Z,135
2016-12-12T12:01:23.767Z,135
2016-12-12T12:02:23.757Z,135
2016-12-12T12:03:23.745Z,130
2016-12-12T12:04:23.723Z,130
2016-12-12T12:05:23.720Z,130
2016-12-12T12:06:24.007Z,130
2016-12-12T12:07:23.693Z,130
2016-12-12T12:08:23.679Z,130
2016-12-12T12:09:23.966Z,130
2016-12-12T12:10:23.655Z,130
2016-12-12T12:11:23.645Z,130
2016-12-12T12:12:23.945Z,130
2016-12-12T12:13:23.617Z,125
2016-12-12T12:14:23.608Z,125
2016-12-12T12:15:23.900Z,125
2016-12-12T12:16:23.586Z,125
2016-12-12T12:17:23.578Z,125
2016-12-12T12:18:23.556Z,125
2016-12-12T12:19:24.157Z,125
2016-12-12T12:20:23.541Z,125
2016-12-12T12:21:23.521Z,125
2016-12-12T12:22:23.831Z,125
2016-12-12T12:23:23.492Z,125
2016-12-12T12:24:23.487Z,125
2016-12-12T12:25:23.475Z,120
2016-12-12T12:26:23.455Z,120
2016-12-12T12:27:23.456Z,120
2016-12-12T12:28:23.422Z,120
2016-12-12T12:29:23.421Z,120
2016-12-12T12:30:23.408Z,120
2016-12-12T12:31:23.399Z,120
2016-12-12T12:32:23.385Z,120
2016-12-12T12:33:23.371Z,120
2016-12-12T12:34:23.350Z,120
2016-12-12T12:35:23.343Z,120
2016-12-12T12:36:23.647Z,120
2016-12-12T12:37:23.626Z,120
2016-12-12T12:38:23.310Z,120
2016-12-12T12:39:23.299Z,120
2016-12-12T12:40:23.592Z,120
2016-12-12T12:41:23.277Z,120
2016-12-12T12:42:23.253Z,115
2016-12-12T12:43:23.248Z,115
2016-12-12T12:44:23.232Z,115
2016-12-12T12:45:23.519Z,115
2016-12-12T12:46:23.210Z,115
2016-12-12T12:47:23.208Z,115
2016-12-12T12:48:23.194Z,115
2016-12-12T12:49:23.173Z,115
2016-12-12T12:50:23.162Z,115
2016-12-12T12:51:23.150Z,115
2016-12-12T12:52:23.137Z,115
2016-12-12T12:53:23.151Z,115
2016-12-12T12:54:23.108Z,110
2016-12-12T12:55:23.097Z,110
2016-12-12T12:56:23.089Z,110
2016-12-12T12:57:23.075Z,110
2016-12-12T12:58:23.365Z,110
2016-12-12T12:59:23.355Z,110
2016-12-12T13:00:23.039Z,110
2016-12-12T13:01:23.030Z,110
2016-12-12T13:02:23.015Z,110
2016-12-12T13:03:22.993Z,110
2016-12-12T13:04:22.989Z,110
2016-12-12T13:05:22.971Z,105
2016-12-12T13:06:22.974Z,105
2016-12-12T13:07:22.958Z,105
2016-12-12T13:08:22.944Z,105
2016-12-12T13:09:22.932Z,105
2016-12-12T13:10:22.919Z,105
2016-12-12T13:11:22.908Z,105
2016-12-12T13:12:22.894Z,105
2016-12-12T13:13:23.173Z,105
2016-12-12T13:14:22.871Z,105
2016-12-12T13:15:22.865Z,100
2016-12-12T13:16:23.048Z,100
2016-12-12T13:17:22.829Z,100
2016-12-12T13:18:22.820Z,100
2016-12-12T13:19:22.804Z,100
2016-12-12T13:20:22.796Z,100
2016-12-12T13:21:22.775Z,100
2016-12-12T13:22:22.767Z,100
2016-12-12T13:23:22.758Z,100
2016-12-12T13:24:22.740Z,95
2016-12-12T13:25:22.722Z,95
2016-12-12T13:26:22.712Z,95
2016-12-12T13:27:22.708Z,95
2016-12-12T13:28:22.696Z,95
2016-12-12T13:29:22.681Z,95
2016-12-12T13:30:22.675Z,95
2016-12-12T13:31:22.655Z,95
2016-12-12T13:32:22.654Z,90
2016-12-12T13:33:22.626Z,90
2016-12-12T13:34:22.626Z,90
2016-12-12T13:35:22.603Z,90
2016-12-12T13:36:22.589Z,90
2016-12-12T13:37:22.583Z,90
2016-12-12T13:38:22.569Z,90
2016-12-12T13:39:22.558Z,85
2016-12-12T13:40:22.842Z,85
2016-12-12T13:41:22.538Z,85
2016-12-12T13:42:22.519Z,85
2016-12-12T13:43:22.512Z,85
2016-12-12T13:44:22.530Z,85
2016-12-12T13:45:22.479Z,80
2016-12-12T13:46:22.473Z,80
2016-12-12T13:47:22.450Z,80
2016-12-12T13:48:22.440Z,80
2016-12-12T13:49:22.424Z,80
2016-12-12T13:50:22.418Z,80
2016-12-12T13:51:22.402Z,75
2016-12-12T13:52:22.386Z,75
2016-12-12T13:53:22.383Z,75
2016-12-12T13:54:22.367Z,75
2016-12-12T13:55:22.359Z,75
2016-12-12T13:56:22.347Z,75
2016-12-12T13:57:22.329Z,70
2016-12-12T13:58:22.623Z,70
2016-12-12T13:59:22.314Z,70
2016-12-12T14:00:22.295Z,70
2016-12-12T14:01:22.283Z,70
2016-12-12T14:02:22.266Z,65
2016-12-12T14:03:22.251Z,65
2016-12-12T14:04:22.265Z,65
2016-12-12T14:05:22.233Z,65
2016-12-12T14:06:22.215Z,65
2016-12-12T14:07:22.209Z,60
2016-12-12T14:08:22.193Z,60
2016-12-12T14:09:22.175Z,60
2016-12-12T14:10:22.161Z,60
2016-12-12T14:11:22.184Z,55
2016-12-12T14:12:22.138Z,55
2016-12-12T14:13:22.126Z,55
2016-12-12T14:14:22.116Z,55
2016-12-12T14:15:22.100Z,55
2016-12-12T14:16:22.094Z,50
2016-12-12T14:17:22.070Z,50
2016-12-12T14:18:22.065Z,50
2016-12-12T14:19:22.053Z,50
2016-12-12T14:20:22.042Z,45
2016-12-12T14:21:22.020Z,45